sensor_id;sensor_type;location;lat;lon;timestamp;P1;durP1;ratioP1;P2;durP2;ratioP2
21979;SDS011;11154;48.558;9.234;2023-04-16T00:01:11;1.90;;;1.80;;
21979;SDS011;11154;48.558;9.234;2023-04-16T00:03:14;2.60;;;1.90;;
21979;SDS011;11154;48.558;9.234;2023-04-16T00:05:16;1.90;;;1.80;;
21979;SDS011;11154;48.558;9.234;2023-04-16T00:07:18;2.65;;;2.03;;
21979;SDS011;11154;48.558;9.234;2023-04-16T00:09:20;1.90;;;1.80;;
21979;SDS011;11154;48.558;9.234;2023-04-16T00:11:21;2.38;;;2.17;;
21979;SDS011;11154;48.558;9.234;2023-04-16T00:13:23;2.30;;;2.10;;
21979;SDS011;11154;48.558;9.234;2023-04-16T00:15:26;2.15;;;2.00;;
21979;SDS011;11154;48.558;9.234;2023-04-16T00:17:28;2.13;;;1.98;;
21979;SDS011;11154;48.558;9.234;2023-04-16T00:19:31;2.45;;;2.25;;
21979;SDS011;11154;48.558;9.234;2023-04-16T00:21:33;2.63;;;2.15;;
21979;SDS011;11154;48.558;9.234;2023-04-16T00:23:35;2.45;;;2.25;;
21979;SDS011;11154;48.558;9.234;2023-04-16T00:25:36;2.75;;;2.22;;
21979;SDS011;11154;48.558;9.234;2023-04-16T00:27:38;2.30;;;2.10;;
21979;SDS011;11154;48.558;9.234;2023-04-16T00:29:40;2.40;;;2.20;;
21979;SDS011;11154;48.558;9.234;2023-04-16T00:31:42;2.13;;;1.92;;
21979;SDS011;11154;48.558;9.234;2023-04-16T00:33:43;3.03;;;2.10;;
21979;SDS011;11154;48.558;9.234;2023-04-16T00:35:46;2.47;;;2.28;;
21979;SDS011;11154;48.558;9.234;2023-04-16T00:37:49;2.20;;;2.00;;
21979;SDS011;11154;48.558;9.234;2023-04-16T00:39:51;2.50;;;2.22;;
21979;SDS011;11154;48.558;9.234;2023-04-16T00:41:52;2.20;;;1.85;;
21979;SDS011;11154;48.558;9.234;2023-04-16T00:43:54;2.03;;;1.90;;
21979;SDS011;11154;48.558;9.234;2023-04-16T00:45:56;3.28;;;2.20;;
21979;SDS011;11154;48.558;9.234;2023-04-16T00:47:59;2.42;;;2.20;;
21979;SDS011;11154;48.558;9.234;2023-04-16T00:50:01;2.25;;;2.05;;
21979;SDS011;11154;48.558;9.234;2023-04-16T00:52:06;2.47;;;2.28;;
21979;SDS011;11154;48.558;9.234;2023-04-16T00:54:07;2.42;;;2.22;;
21979;SDS011;11154;48.558;9.234;2023-04-16T00:56:09;1.98;;;1.77;;
21979;SDS011;11154;48.558;9.234;2023-04-16T00:58:12;2.33;;;2.13;;
21979;SDS011;11154;48.558;9.234;2023-04-16T01:00:14;2.50;;;2.10;;
21979;SDS011;11154;48.558;9.234;2023-04-16T01:02:16;2.38;;;2.00;;
21979;SDS011;11154;48.558;9.234;2023-04-16T01:04:17;2.53;;;2.33;;
21979;SDS011;11154;48.558;9.234;2023-04-16T01:06:19;2.13;;;1.92;;
21979;SDS011;11154;48.558;9.234;2023-04-16T01:08:23;2.55;;;2.30;;
21979;SDS011;11154;48.558;9.234;2023-04-16T01:10:25;2.35;;;2.15;;
21979;SDS011;11154;48.558;9.234;2023-04-16T01:12:27;3.13;;;2.25;;
21979;SDS011;11154;48.558;9.234;2023-04-16T01:14:29;2.30;;;2.10;;
21979;SDS011;11154;48.558;9.234;2023-04-16T01:16:35;2.40;;;2.20;;
21979;SDS011;11154;48.558;9.234;2023-04-16T01:18:37;2.88;;;2.53;;
21979;SDS011;11154;48.558;9.234;2023-04-16T01:20:41;3.85;;;2.55;;
21979;SDS011;11154;48.558;9.234;2023-04-16T01:22:43;3.03;;;2.33;;
21979;SDS011;11154;48.558;9.234;2023-04-16T01:24:45;2.97;;;2.60;;
21979;SDS011;11154;48.558;9.234;2023-04-16T01:26:46;4.88;;;2.80;;
21979;SDS011;11154;48.558;9.234;2023-04-16T01:28:48;2.70;;;2.50;;
21979;SDS011;11154;48.558;9.234;2023-04-16T01:30:50;2.85;;;2.50;;
21979;SDS011;11154;48.558;9.234;2023-04-16T01:32:51;2.58;;;2.38;;
21979;SDS011;11154;48.558;9.234;2023-04-16T01:34:53;2.78;;;2.55;;
21979;SDS011;11154;48.558;9.234;2023-04-16T01:36:56;3.35;;;2.80;;
21979;SDS011;11154;48.558;9.234;2023-04-16T01:38:58;2.75;;;2.55;;
21979;SDS011;11154;48.558;9.234;2023-04-16T01:41:00;2.78;;;2.40;;
21979;SDS011;11154;48.558;9.234;2023-04-16T01:43:01;2.35;;;2.15;;
21979;SDS011;11154;48.558;9.234;2023-04-16T01:45:04;3.10;;;2.80;;
21979;SDS011;11154;48.558;9.234;2023-04-16T01:47:07;2.50;;;2.25;;
21979;SDS011;11154;48.558;9.234;2023-04-16T01:49:09;2.97;;;2.60;;
21979;SDS011;11154;48.558;9.234;2023-04-16T01:51:10;3.20;;;2.90;;
21979;SDS011;11154;48.558;9.234;2023-04-16T01:53:13;2.60;;;2.35;;
21979;SDS011;11154;48.558;9.234;2023-04-16T01:55:15;2.58;;;2.38;;
21979;SDS011;11154;48.558;9.234;2023-04-16T01:57:17;2.53;;;2.33;;
21979;SDS011;11154;48.558;9.234;2023-04-16T01:59:18;3.45;;;2.55;;
21979;SDS011;11154;48.558;9.234;2023-04-16T02:01:23;3.40;;;2.80;;
21979;SDS011;11154;48.558;9.234;2023-04-16T02:03:25;2.50;;;2.25;;
21979;SDS011;11154;48.558;9.234;2023-04-16T02:05:26;2.10;;;1.90;;
21979;SDS011;11154;48.558;9.234;2023-04-16T02:07:28;2.67;;;2.42;;
21979;SDS011;11154;48.558;9.234;2023-04-16T02:09:34;2.53;;;2.30;;
21979;SDS011;11154;48.558;9.234;2023-04-16T02:11:36;2.40;;;2.20;;
21979;SDS011;11154;48.558;9.234;2023-04-16T02:13:38;2.40;;;2.20;;
21979;SDS011;11154;48.558;9.234;2023-04-16T02:15:43;2.35;;;2.15;;
21979;SDS011;11154;48.558;9.234;2023-04-16T02:17:45;2.00;;;1.90;;
21979;SDS011;11154;48.558;9.234;2023-04-16T02:19:47;2.67;;;2.47;;
21979;SDS011;11154;48.558;9.234;2023-04-16T02:21:52;2.85;;;2.28;;
21979;SDS011;11154;48.558;9.234;2023-04-16T02:23:55;2.67;;;2.47;;
21979;SDS011;11154;48.558;9.234;2023-04-16T02:25:58;2.80;;;2.50;;
21979;SDS011;11154;48.558;9.234;2023-04-16T02:28:00;2.80;;;2.60;;
21979;SDS011;11154;48.558;9.234;2023-04-16T02:30:01;2.50;;;2.30;;
21979;SDS011;11154;48.558;9.234;2023-04-16T02:32:03;2.65;;;2.35;;
21979;SDS011;11154;48.558;9.234;2023-04-16T02:34:05;3.60;;;2.60;;
21979;SDS011;11154;48.558;9.234;2023-04-16T02:36:07;2.30;;;2.10;;
21979;SDS011;11154;48.558;9.234;2023-04-16T02:38:10;2.85;;;2.13;;
21979;SDS011;11154;48.558;9.234;2023-04-16T02:40:11;2.40;;;2.10;;
21979;SDS011;11154;48.558;9.234;2023-04-16T02:42:14;2.58;;;2.38;;
21979;SDS011;11154;48.558;9.234;2023-04-16T02:44:16;2.58;;;2.20;;
21979;SDS011;11154;48.558;9.234;2023-04-16T02:46:18;1.95;;;1.85;;
21979;SDS011;11154;48.558;9.234;2023-04-16T02:48:20;2.30;;;2.10;;
21979;SDS011;11154;48.558;9.234;2023-04-16T02:50:21;2.22;;;2.03;;
21979;SDS011;11154;48.558;9.234;2023-04-16T02:52:23;2.30;;;2.10;;
21979;SDS011;11154;48.558;9.234;2023-04-16T02:54:25;2.03;;;1.90;;
21979;SDS011;11154;48.558;9.234;2023-04-16T02:56:26;3.13;;;2.00;;
21979;SDS011;11154;48.558;9.234;2023-04-16T02:58:29;2.28;;;2.08;;
21979;SDS011;11154;48.558;9.234;2023-04-16T03:00:31;2.20;;;1.88;;
21979;SDS011;11154;48.558;9.234;2023-04-16T03:02:33;1.83;;;1.67;;
21979;SDS011;11154;48.558;9.234;2023-04-16T03:04:35;1.63;;;1.52;;
21979;SDS011;11154;48.558;9.234;2023-04-16T03:06:36;2.30;;;1.55;;
21979;SDS011;11154;48.558;9.234;2023-04-16T03:08:38;4.03;;;1.83;;
21979;SDS011;11154;48.558;9.234;2023-04-16T03:10:40;1.85;;;1.67;;
21979;SDS011;11154;48.558;9.234;2023-04-16T03:12:41;1.77;;;1.67;;
21979;SDS011;11154;48.558;9.234;2023-04-16T03:14:44;1.80;;;1.70;;
21979;SDS011;11154;48.558;9.234;2023-04-16T03:16:46;2.05;;;1.70;;
21979;SDS011;11154;48.558;9.234;2023-04-16T03:18:47;1.58;;;1.27;;
21979;SDS011;11154;48.558;9.234;2023-04-16T03:20:50;1.60;;;1.50;;
21979;SDS011;11154;48.558;9.234;2023-04-16T03:22:52;1.63;;;1.50;;
21979;SDS011;11154;48.558;9.234;2023-04-16T03:24:54;1.83;;;1.73;;
21979;SDS011;11154;48.558;9.234;2023-04-16T03:26:56;2.42;;;1.70;;
21979;SDS011;11154;48.558;9.234;2023-04-16T03:28:58;1.60;;;1.50;;
21979;SDS011;11154;48.558;9.234;2023-04-16T03:31:02;1.67;;;1.58;;
21979;SDS011;11154;48.558;9.234;2023-04-16T03:33:04;2.40;;;1.90;;
21979;SDS011;11154;48.558;9.234;2023-04-16T03:35:06;1.70;;;1.60;;
21979;SDS011;11154;48.558;9.234;2023-04-16T03:37:09;1.55;;;1.45;;
21979;SDS011;11154;48.558;9.234;2023-04-16T03:39:12;1.67;;;1.58;;
21979;SDS011;11154;48.558;9.234;2023-04-16T03:41:14;2.05;;;1.85;;
21979;SDS011;11154;48.558;9.234;2023-04-16T03:43:16;2.38;;;1.90;;
21979;SDS011;11154;48.558;9.234;2023-04-16T03:45:18;2.45;;;2.03;;
21979;SDS011;11154;48.558;9.234;2023-04-16T03:47:21;1.70;;;1.60;;
21979;SDS011;11154;48.558;9.234;2023-04-16T03:49:22;1.90;;;1.77;;
21979;SDS011;11154;48.558;9.234;2023-04-16T03:51:24;1.92;;;1.83;;
21979;SDS011;11154;48.558;9.234;2023-04-16T03:53:26;2.38;;;2.10;;
21979;SDS011;11154;48.558;9.234;2023-04-16T03:55:27;3.17;;;1.85;;
21979;SDS011;11154;48.558;9.234;2023-04-16T03:57:29;2.30;;;2.10;;
21979;SDS011;11154;48.558;9.234;2023-04-16T03:59:31;2.22;;;2.03;;
21979;SDS011;11154;48.558;9.234;2023-04-16T04:01:33;1.70;;;1.60;;
21979;SDS011;11154;48.558;9.234;2023-04-16T04:03:36;2.20;;;2.00;;
21979;SDS011;11154;48.558;9.234;2023-04-16T04:05:38;2.40;;;2.00;;
21979;SDS011;11154;48.558;9.234;2023-04-16T04:07:40;3.75;;;1.98;;
21979;SDS011;11154;48.558;9.234;2023-04-16T04:09:42;2.35;;;2.05;;
21979;SDS011;11154;48.558;9.234;2023-04-16T04:11:44;2.05;;;1.70;;
21979;SDS011;11154;48.558;9.234;2023-04-16T04:13:45;2.30;;;2.10;;
21979;SDS011;11154;48.558;9.234;2023-04-16T04:15:47;2.38;;;2.15;;
21979;SDS011;11154;48.558;9.234;2023-04-16T04:17:49;2.83;;;2.13;;
21979;SDS011;11154;48.558;9.234;2023-04-16T04:19:52;2.42;;;2.22;;
21979;SDS011;11154;48.558;9.234;2023-04-16T04:21:54;2.10;;;1.88;;
21979;SDS011;11154;48.558;9.234;2023-04-16T04:23:55;2.97;;;2.17;;
21979;SDS011;11154;48.558;9.234;2023-04-16T04:25:57;3.25;;;2.40;;
21979;SDS011;11154;48.558;9.234;2023-04-16T04:28:02;2.35;;;2.13;;
21979;SDS011;11154;48.558;9.234;2023-04-16T04:30:04;2.97;;;2.40;;
21979;SDS011;11154;48.558;9.234;2023-04-16T04:32:07;2.60;;;2.40;;
21979;SDS011;11154;48.558;9.234;2023-04-16T04:34:09;3.00;;;2.40;;
21979;SDS011;11154;48.558;9.234;2023-04-16T04:36:12;2.60;;;2.40;;
21979;SDS011;11154;48.558;9.234;2023-04-16T04:38:13;2.60;;;2.10;;
21979;SDS011;11154;48.558;9.234;2023-04-16T04:40:18;2.25;;;2.05;;
21979;SDS011;11154;48.558;9.234;2023-04-16T04:42:20;2.50;;;2.28;;
21979;SDS011;11154;48.558;9.234;2023-04-16T04:44:22;4.25;;;2.40;;
21979;SDS011;11154;48.558;9.234;2023-04-16T04:46:23;2.50;;;2.30;;
21979;SDS011;11154;48.558;9.234;2023-04-16T04:48:25;2.78;;;2.30;;
21979;SDS011;11154;48.558;9.234;2023-04-16T04:50:27;2.50;;;2.30;;
21979;SDS011;11154;48.558;9.234;2023-04-16T04:52:30;2.90;;;2.60;;
21979;SDS011;11154;48.558;9.234;2023-04-16T04:54:31;3.03;;;2.47;;
21979;SDS011;11154;48.558;9.234;2023-04-16T04:56:33;2.75;;;2.42;;
21979;SDS011;11154;48.558;9.234;2023-04-16T04:58:35;2.38;;;2.10;;
21979;SDS011;11154;48.558;9.234;2023-04-16T05:00:37;2.70;;;2.50;;
21979;SDS011;11154;48.558;9.234;2023-04-16T05:02:38;2.92;;;2.63;;
21979;SDS011;11154;48.558;9.234;2023-04-16T05:04:40;3.40;;;2.70;;
21979;SDS011;11154;48.558;9.234;2023-04-16T05:06:42;3.20;;;2.45;;
21979;SDS011;11154;48.558;9.234;2023-04-16T05:08:45;2.58;;;2.22;;
21979;SDS011;11154;48.558;9.234;2023-04-16T05:10:47;3.38;;;2.60;;
21979;SDS011;11154;48.558;9.234;2023-04-16T05:12:48;2.60;;;2.40;;
21979;SDS011;11154;48.558;9.234;2023-04-16T05:14:50;2.55;;;2.33;;
21979;SDS011;11154;48.558;9.234;2023-04-16T05:16:52;2.63;;;2.42;;
21979;SDS011;11154;48.558;9.234;2023-04-16T05:18:54;2.90;;;2.50;;
21979;SDS011;11154;48.558;9.234;2023-04-16T05:20:57;2.60;;;2.38;;
21979;SDS011;11154;48.558;9.234;2023-04-16T05:22:58;2.65;;;2.45;;
21979;SDS011;11154;48.558;9.234;2023-04-16T05:25:01;3.10;;;2.50;;
21979;SDS011;11154;48.558;9.234;2023-04-16T05:27:03;2.70;;;2.30;;
21979;SDS011;11154;48.558;9.234;2023-04-16T05:29:05;2.50;;;2.30;;
21979;SDS011;11154;48.558;9.234;2023-04-16T05:31:07;3.00;;;2.13;;
21979;SDS011;11154;48.558;9.234;2023-04-16T05:33:08;2.45;;;2.25;;
21979;SDS011;11154;48.558;9.234;2023-04-16T05:35:10;2.60;;;2.30;;
21979;SDS011;11154;48.558;9.234;2023-04-16T05:37:12;2.40;;;2.20;;
21979;SDS011;11154;48.558;9.234;2023-04-16T05:39:15;2.60;;;2.10;;
21979;SDS011;11154;48.558;9.234;2023-04-16T05:41:18;2.75;;;2.42;;
21979;SDS011;11154;48.558;9.234;2023-04-16T05:43:20;2.95;;;2.60;;
21979;SDS011;11154;48.558;9.234;2023-04-16T05:45:22;2.50;;;2.30;;
21979;SDS011;11154;48.558;9.234;2023-04-16T05:47:23;3.50;;;2.63;;
21979;SDS011;11154;48.558;9.234;2023-04-16T05:49:25;3.22;;;2.70;;
21979;SDS011;11154;48.558;9.234;2023-04-16T05:51:27;3.75;;;2.47;;
21979;SDS011;11154;48.558;9.234;2023-04-16T05:53:29;2.63;;;2.42;;
21979;SDS011;11154;48.558;9.234;2023-04-16T05:55:31;3.78;;;2.55;;
21979;SDS011;11154;48.558;9.234;2023-04-16T05:57:34;2.72;;;2.50;;
21979;SDS011;11154;48.558;9.234;2023-04-16T05:59:36;2.65;;;2.20;;
21979;SDS011;11154;48.558;9.234;2023-04-16T06:01:38;2.65;;;2.42;;
21979;SDS011;11154;48.558;9.234;2023-04-16T06:03:39;2.50;;;2.30;;
21979;SDS011;11154;48.558;9.234;2023-04-16T06:05:41;3.05;;;2.63;;
21979;SDS011;11154;48.558;9.234;2023-04-16T06:07:43;3.00;;;2.40;;
21979;SDS011;11154;48.558;9.234;2023-04-16T06:09:45;3.78;;;3.10;;
21979;SDS011;11154;48.558;9.234;2023-04-16T06:11:46;3.22;;;2.55;;
21979;SDS011;11154;48.558;9.234;2023-04-16T06:13:50;3.55;;;3.25;;
21979;SDS011;11154;48.558;9.234;2023-04-16T06:15:52;4.35;;;3.47;;
21979;SDS011;11154;48.558;9.234;2023-04-16T06:17:54;4.82;;;4.03;;
21979;SDS011;11154;48.558;9.234;2023-04-16T06:19:56;5.72;;;4.60;;
21979;SDS011;11154;48.558;9.234;2023-04-16T06:21:58;6.53;;;4.55;;
21979;SDS011;11154;48.558;9.234;2023-04-16T06:24:00;4.90;;;4.18;;
21979;SDS011;11154;48.558;9.234;2023-04-16T06:26:01;5.63;;;4.80;;
21979;SDS011;11154;48.558;9.234;2023-04-16T06:28:03;6.68;;;5.18;;
21979;SDS011;11154;48.558;9.234;2023-04-16T06:30:09;8.98;;;6.20;;
21979;SDS011;11154;48.558;9.234;2023-04-16T06:32:12;7.57;;;6.03;;
21979;SDS011;11154;48.558;9.234;2023-04-16T06:34:16;11.50;;;7.43;;
21979;SDS011;11154;48.558;9.234;2023-04-16T06:36:17;10.35;;;7.30;;
21979;SDS011;11154;48.558;9.234;2023-04-16T06:38:19;9.27;;;7.50;;
21979;SDS011;11154;48.558;9.234;2023-04-16T06:40:21;12.10;;;8.60;;
21979;SDS011;11154;48.558;9.234;2023-04-16T06:42:23;9.75;;;8.25;;
21979;SDS011;11154;48.558;9.234;2023-04-16T06:44:25;10.13;;;8.60;;
21979;SDS011;11154;48.558;9.234;2023-04-16T06:46:28;10.75;;;8.20;;
21979;SDS011;11154;48.558;9.234;2023-04-16T06:48:30;10.90;;;8.60;;
21979;SDS011;11154;48.558;9.234;2023-04-16T06:50:32;12.77;;;9.50;;
21979;SDS011;11154;48.558;9.234;2023-04-16T06:52:34;11.65;;;9.38;;
21979;SDS011;11154;48.558;9.234;2023-04-16T06:54:36;12.02;;;9.45;;
21979;SDS011;11154;48.558;9.234;2023-04-16T06:56:38;11.60;;;8.90;;
21979;SDS011;11154;48.558;9.234;2023-04-16T06:58:40;12.05;;;9.27;;
21979;SDS011;11154;48.558;9.234;2023-04-16T07:00:42;11.45;;;9.73;;
21979;SDS011;11154;48.558;9.234;2023-04-16T07:02:45;12.82;;;8.88;;
21979;SDS011;11154;48.558;9.234;2023-04-16T07:04:46;11.63;;;8.50;;
21979;SDS011;11154;48.558;9.234;2023-04-16T07:06:48;10.00;;;8.25;;
21979;SDS011;11154;48.558;9.234;2023-04-16T07:08:50;9.68;;;8.18;;
21979;SDS011;11154;48.558;9.234;2023-04-16T07:10:52;10.80;;;8.43;;
21979;SDS011;11154;48.558;9.234;2023-04-16T07:12:54;11.73;;;8.55;;
21979;SDS011;11154;48.558;9.234;2023-04-16T07:14:55;10.45;;;8.63;;
21979;SDS011;11154;48.558;9.234;2023-04-16T07:16:57;10.88;;;8.65;;
21979;SDS011;11154;48.558;9.234;2023-04-16T07:19:01;10.15;;;8.05;;
21979;SDS011;11154;48.558;9.234;2023-04-16T07:21:03;10.20;;;8.27;;
21979;SDS011;11154;48.558;9.234;2023-04-16T07:23:05;9.48;;;8.15;;
21979;SDS011;11154;48.558;9.234;2023-04-16T07:25:07;11.40;;;8.63;;
21979;SDS011;11154;48.558;9.234;2023-04-16T07:27:09;10.32;;;8.80;;
21979;SDS011;11154;48.558;9.234;2023-04-16T07:29:11;12.10;;;9.00;;
21979;SDS011;11154;48.558;9.234;2023-04-16T07:31:12;10.15;;;8.30;;
21979;SDS011;11154;48.558;9.234;2023-04-16T07:33:14;11.90;;;9.43;;
21979;SDS011;11154;48.558;9.234;2023-04-16T07:35:20;10.77;;;8.63;;
21979;SDS011;11154;48.558;9.234;2023-04-16T07:37:22;12.63;;;9.18;;
21979;SDS011;11154;48.558;9.234;2023-04-16T07:39:23;12.07;;;9.10;;
21979;SDS011;11154;48.558;9.234;2023-04-16T07:41:28;10.93;;;8.65;;
21979;SDS011;11154;48.558;9.234;2023-04-16T07:43:30;11.30;;;9.32;;
21979;SDS011;11154;48.558;9.234;2023-04-16T07:45:32;14.02;;;9.55;;
21979;SDS011;11154;48.558;9.234;2023-04-16T07:47:34;14.23;;;10.32;;
21979;SDS011;11154;48.558;9.234;2023-04-16T07:49:36;13.48;;;10.68;;
21979;SDS011;11154;48.558;9.234;2023-04-16T07:51:39;13.15;;;10.02;;
21979;SDS011;11154;48.558;9.234;2023-04-16T07:53:41;11.68;;;9.73;;
21979;SDS011;11154;48.558;9.234;2023-04-16T07:55:42;13.40;;;10.13;;
21979;SDS011;11154;48.558;9.234;2023-04-16T07:57:44;12.60;;;10.48;;
21979;SDS011;11154;48.558;9.234;2023-04-16T07:59:46;13.68;;;10.27;;
21979;SDS011;11154;48.558;9.234;2023-04-16T08:01:48;13.55;;;10.98;;
21979;SDS011;11154;48.558;9.234;2023-04-16T08:03:50;13.85;;;10.05;;
21979;SDS011;11154;48.558;9.234;2023-04-16T08:05:52;14.75;;;11.40;;
21979;SDS011;11154;48.558;9.234;2023-04-16T08:07:55;14.82;;;10.23;;
21979;SDS011;11154;48.558;9.234;2023-04-16T08:09:56;13.88;;;10.30;;
21979;SDS011;11154;48.558;9.234;2023-04-16T08:11:58;15.27;;;11.57;;
21979;SDS011;11154;48.558;9.234;2023-04-16T08:14:00;14.98;;;11.30;;
21979;SDS011;11154;48.558;9.234;2023-04-16T08:16:02;14.88;;;11.20;;
21979;SDS011;11154;48.558;9.234;2023-04-16T08:18:04;13.60;;;10.88;;
21979;SDS011;11154;48.558;9.234;2023-04-16T08:20:12;13.95;;;11.15;;
21979;SDS011;11154;48.558;9.234;2023-04-16T08:22:14;15.63;;;10.63;;
21979;SDS011;11154;48.558;9.234;2023-04-16T08:24:18;13.68;;;10.95;;
21979;SDS011;11154;48.558;9.234;2023-04-16T08:26:20;13.75;;;10.85;;
21979;SDS011;11154;48.558;9.234;2023-04-16T08:28:21;14.23;;;10.25;;
21979;SDS011;11154;48.558;9.234;2023-04-16T08:30:23;13.43;;;10.48;;
21979;SDS011;11154;48.558;9.234;2023-04-16T08:32:25;14.70;;;10.85;;
21979;SDS011;11154;48.558;9.234;2023-04-16T08:34:27;14.32;;;10.95;;
21979;SDS011;11154;48.558;9.234;2023-04-16T08:36:29;13.02;;;10.77;;
21979;SDS011;11154;48.558;9.234;2023-04-16T08:38:30;13.85;;;10.60;;
21979;SDS011;11154;48.558;9.234;2023-04-16T08:40:34;13.02;;;10.07;;
21979;SDS011;11154;48.558;9.234;2023-04-16T08:42:39;13.02;;;10.50;;
21979;SDS011;11154;48.558;9.234;2023-04-16T08:44:46;14.40;;;10.93;;
21979;SDS011;11154;48.558;9.234;2023-04-16T08:46:49;13.57;;;9.93;;
21979;SDS011;11154;48.558;9.234;2023-04-16T08:48:56;16.70;;;12.38;;
21979;SDS011;11154;48.558;9.234;2023-04-16T08:51:01;12.75;;;9.90;;
21979;SDS011;11154;48.558;9.234;2023-04-16T08:53:03;14.02;;;10.90;;
21979;SDS011;11154;48.558;9.234;2023-04-16T08:55:08;13.45;;;10.63;;
21979;SDS011;11154;48.558;9.234;2023-04-16T08:57:15;13.73;;;10.60;;
21979;SDS011;11154;48.558;9.234;2023-04-16T08:59:20;12.70;;;9.80;;
21979;SDS011;11154;48.558;9.234;2023-04-16T09:01:22;13.32;;;9.65;;
21979;SDS011;11154;48.558;9.234;2023-04-16T09:03:26;13.30;;;9.60;;
21979;SDS011;11154;48.558;9.234;2023-04-16T09:05:28;13.55;;;10.98;;
21979;SDS011;11154;48.558;9.234;2023-04-16T09:07:31;13.18;;;10.65;;
21979;SDS011;11154;48.558;9.234;2023-04-16T09:09:34;14.65;;;10.88;;
21979;SDS011;11154;48.558;9.234;2023-04-16T09:11:35;14.15;;;10.02;;
21979;SDS011;11154;48.558;9.234;2023-04-16T09:13:40;14.20;;;10.07;;
21979;SDS011;11154;48.558;9.234;2023-04-16T09:15:42;13.50;;;10.35;;
21979;SDS011;11154;48.558;9.234;2023-04-16T09:17:44;13.48;;;10.15;;
21979;SDS011;11154;48.558;9.234;2023-04-16T09:19:46;12.45;;;10.07;;
21979;SDS011;11154;48.558;9.234;2023-04-16T09:21:48;14.48;;;9.88;;
21979;SDS011;11154;48.558;9.234;2023-04-16T09:23:51;12.18;;;9.70;;
21979;SDS011;11154;48.558;9.234;2023-04-16T09:25:53;13.68;;;10.25;;
21979;SDS011;11154;48.558;9.234;2023-04-16T09:27:55;13.10;;;8.93;;
21979;SDS011;11154;48.558;9.234;2023-04-16T09:29:59;11.77;;;9.38;;
21979;SDS011;11154;48.558;9.234;2023-04-16T09:32:01;11.40;;;9.77;;
21979;SDS011;11154;48.558;9.234;2023-04-16T09:34:05;10.38;;;8.98;;
21979;SDS011;11154;48.558;9.234;2023-04-16T09:36:08;12.57;;;8.90;;
21979;SDS011;11154;48.558;9.234;2023-04-16T09:38:11;13.10;;;10.00;;
21979;SDS011;11154;48.558;9.234;2023-04-16T09:40:12;13.27;;;9.45;;
21979;SDS011;11154;48.558;9.234;2023-04-16T09:42:25;11.85;;;8.57;;
21979;SDS011;11154;48.558;9.234;2023-04-16T09:44:33;11.57;;;8.88;;
21979;SDS011;11154;48.558;9.234;2023-04-16T09:46:39;15.25;;;9.15;;
21979;SDS011;11154;48.558;9.234;2023-04-16T09:48:42;10.68;;;8.45;;
21979;SDS011;11154;48.558;9.234;2023-04-16T09:50:49;11.00;;;8.88;;
21979;SDS011;11154;48.558;9.234;2023-04-16T09:52:51;11.15;;;7.95;;
21979;SDS011;11154;48.558;9.234;2023-04-16T09:54:54;12.93;;;9.13;;
21979;SDS011;11154;48.558;9.234;2023-04-16T09:56:56;10.82;;;8.43;;
21979;SDS011;11154;48.558;9.234;2023-04-16T09:58:58;10.20;;;8.43;;
21979;SDS011;11154;48.558;9.234;2023-04-16T10:01:00;10.73;;;8.10;;
21979;SDS011;11154;48.558;9.234;2023-04-16T10:03:04;9.95;;;8.25;;
21979;SDS011;11154;48.558;9.234;2023-04-16T10:05:06;10.52;;;8.52;;
21979;SDS011;11154;48.558;9.234;2023-04-16T10:07:09;10.85;;;8.45;;
21979;SDS011;11154;48.558;9.234;2023-04-16T10:09:12;10.07;;;8.15;;
21979;SDS011;11154;48.558;9.234;2023-04-16T10:11:14;10.55;;;7.85;;
21979;SDS011;11154;48.558;9.234;2023-04-16T10:13:15;9.98;;;7.65;;
21979;SDS011;11154;48.558;9.234;2023-04-16T10:15:18;12.20;;;8.80;;
21979;SDS011;11154;48.558;9.234;2023-04-16T10:17:20;12.15;;;8.43;;
21979;SDS011;11154;48.558;9.234;2023-04-16T10:19:24;10.40;;;8.43;;
21979;SDS011;11154;48.558;9.234;2023-04-16T10:21:27;10.32;;;7.72;;
21979;SDS011;11154;48.558;9.234;2023-04-16T10:23:32;11.85;;;7.93;;
21979;SDS011;11154;48.558;9.234;2023-04-16T10:25:35;10.77;;;8.27;;
21979;SDS011;11154;48.558;9.234;2023-04-16T10:27:38;9.68;;;7.53;;
21979;SDS011;11154;48.558;9.234;2023-04-16T10:29:41;10.73;;;8.10;;
21979;SDS011;11154;48.558;9.234;2023-04-16T10:31:44;10.98;;;8.20;;
21979;SDS011;11154;48.558;9.234;2023-04-16T10:33:47;13.30;;;8.63;;
21979;SDS011;11154;48.558;9.234;2023-04-16T10:36:05;10.82;;;8.05;;
21979;SDS011;11154;48.558;9.234;2023-04-16T10:38:21;11.90;;;8.38;;
21979;SDS011;11154;48.558;9.234;2023-04-16T10:40:24;11.38;;;8.60;;
21979;SDS011;11154;48.558;9.234;2023-04-16T10:42:27;12.38;;;8.48;;
21979;SDS011;11154;48.558;9.234;2023-04-16T10:44:29;10.30;;;8.23;;
21979;SDS011;11154;48.558;9.234;2023-04-16T10:46:32;13.25;;;8.75;;
21979;SDS011;11154;48.558;9.234;2023-04-16T10:48:37;11.63;;;9.13;;
21979;SDS011;11154;48.558;9.234;2023-04-16T10:50:39;11.32;;;8.98;;
21979;SDS011;11154;48.558;9.234;2023-04-16T10:52:42;13.18;;;9.13;;
21979;SDS011;11154;48.558;9.234;2023-04-16T10:54:45;11.77;;;9.13;;
21979;SDS011;11154;48.558;9.234;2023-04-16T10:56:48;12.38;;;9.63;;
21979;SDS011;11154;48.558;9.234;2023-04-16T10:58:51;12.77;;;8.98;;
21979;SDS011;11154;48.558;9.234;2023-04-16T11:00:54;12.05;;;8.73;;
21979;SDS011;11154;48.558;9.234;2023-04-16T11:02:55;12.00;;;9.40;;
21979;SDS011;11154;48.558;9.234;2023-04-16T11:04:57;13.13;;;8.98;;
21979;SDS011;11154;48.558;9.234;2023-04-16T11:07:02;12.00;;;8.98;;
21979;SDS011;11154;48.558;9.234;2023-04-16T11:09:07;12.65;;;8.90;;
21979;SDS011;11154;48.558;9.234;2023-04-16T11:11:46;10.73;;;8.40;;
21979;SDS011;11154;48.558;9.234;2023-04-16T11:13:49;10.90;;;8.25;;
21979;SDS011;11154;48.558;9.234;2023-04-16T11:15:56;12.00;;;8.80;;
21979;SDS011;11154;48.558;9.234;2023-04-16T11:17:58;11.60;;;8.73;;
21979;SDS011;11154;48.558;9.234;2023-04-16T11:20:00;12.15;;;9.20;;
21979;SDS011;11154;48.558;9.234;2023-04-16T11:22:02;11.45;;;8.77;;
21979;SDS011;11154;48.558;9.234;2023-04-16T11:24:04;12.88;;;9.18;;
21979;SDS011;11154;48.558;9.234;2023-04-16T11:26:18;16.00;;;10.23;;
21979;SDS011;11154;48.558;9.234;2023-04-16T11:28:31;12.27;;;9.43;;
21979;SDS011;11154;48.558;9.234;2023-04-16T11:30:34;13.10;;;9.20;;
21979;SDS011;11154;48.558;9.234;2023-04-16T11:32:37;13.02;;;9.10;;
21979;SDS011;11154;48.558;9.234;2023-04-16T11:34:42;12.85;;;8.50;;
21979;SDS011;11154;48.558;9.234;2023-04-16T11:36:45;13.25;;;9.30;;
21979;SDS011;11154;48.558;9.234;2023-04-16T11:38:49;14.23;;;9.73;;
21979;SDS011;11154;48.558;9.234;2023-04-16T11:40:50;11.75;;;8.88;;
21979;SDS011;11154;48.558;9.234;2023-04-16T11:42:54;12.50;;;9.05;;
21979;SDS011;11154;48.558;9.234;2023-04-16T11:44:56;10.52;;;7.95;;
21979;SDS011;11154;48.558;9.234;2023-04-16T11:46:59;12.18;;;8.77;;
21979;SDS011;11154;48.558;9.234;2023-04-16T11:49:06;9.05;;;7.68;;
21979;SDS011;11154;48.558;9.234;2023-04-16T11:51:07;10.38;;;7.13;;
21979;SDS011;11154;48.558;9.234;2023-04-16T11:53:09;9.10;;;7.00;;
21979;SDS011;11154;48.558;9.234;2023-04-16T11:55:11;8.25;;;7.15;;
21979;SDS011;11154;48.558;9.234;2023-04-16T11:57:13;9.25;;;7.57;;
21979;SDS011;11154;48.558;9.234;2023-04-16T11:59:17;9.27;;;7.47;;
21979;SDS011;11154;48.558;9.234;2023-04-16T12:01:20;8.75;;;7.10;;
21979;SDS011;11154;48.558;9.234;2023-04-16T12:03:36;8.88;;;7.05;;
21979;SDS011;11154;48.558;9.234;2023-04-16T12:05:38;10.13;;;6.88;;
21979;SDS011;11154;48.558;9.234;2023-04-16T12:07:43;10.88;;;7.50;;
21979;SDS011;11154;48.558;9.234;2023-04-16T12:09:45;9.63;;;7.07;;
21979;SDS011;11154;48.558;9.234;2023-04-16T12:11:47;9.95;;;7.15;;
21979;SDS011;11154;48.558;9.234;2023-04-16T12:16:16;7.90;;;5.82;;